Time;durP1;ratioP1;P1;durP2;ratioP2;P2;SDS_P1;SDS_P2;PMS_P1;PMS_P2;Temp;Humidity;BMP_temperature;BMP_pressure;BME280_temperature;BME280_humidity;BME280_pressure;Samples;Min_cycle;Max_cycle;Signal;HPM_P1;HPM_P2
2024/03/02 00:01:10;;;;;;;4.30;2.17;;;8.20;99.90;;;-144.05;58.70;56961.41;5013459;28;20052;-79
2024/03/02 00:03:40;;;;;;;3.10;2.25;;;8.10;99.90;;;-144.05;58.94;56980.53;5012003;28;20025;-78
2024/03/02 00:06:07;;;;;;;3.90;2.05;;;8.30;99.90;;;-144.05;58.22;56965.66;5010602;28;20033;-80
2024/03/02 00:08:33;;;;;;;4.47;2.50;;;7.20;99.90;;;-144.05;58.60;56957.16;5012005;28;20034;-80
2024/03/02 00:11:02;;;;;;;3.85;2.53;;;8.30;99.90;;;-144.05;58.63;56944.41;5010984;28;20030;-80
2024/03/02 00:13:30;;;;;;;5.72;2.85;;;6.90;99.90;;;-144.05;58.41;56957.16;5018258;28;20044;-80
2024/03/02 00:15:58;;;;;;;4.18;2.70;;;8.30;99.90;;;-144.05;58.26;56959.28;5010829;28;20026;-79
2024/03/02 00:18:33;;;;;;;5.80;2.70;;;7.20;99.90;;;-144.05;57.86;56997.50;5011719;28;20561;-80
2024/03/02 00:21:00;;;;;;;3.63;2.50;;;7.30;99.90;;;-144.05;58.31;56972.03;5012432;28;20041;-79
2024/03/02 00:23:32;;;;;;;4.80;2.30;;;7.40;99.90;;;-144.05;58.14;56963.53;5011996;28;20033;-80
2024/03/02 00:25:59;;;;;;;3.22;2.17;;;7.00;99.90;;;-144.05;58.50;56946.53;5010489;28;20034;-79
2024/03/02 00:28:34;;;;;;;3.58;1.80;;;9.10;99.90;;;-144.05;58.94;56963.53;5009981;28;20495;-80
2024/03/02 00:31:13;;;;;;;3.05;1.90;;;7.50;99.90;;;-144.05;58.86;56965.66;5010076;28;20614;-78
2024/03/02 00:33:47;;;;;;;4.80;2.10;;;10.50;99.90;;;-144.05;58.51;56950.78;5011262;28;20123;-79
2024/03/02 00:36:21;;;;;;;2.83;1.70;;;8.30;99.90;;;-144.05;59.14;56957.16;5011469;28;20478;-81
2024/03/02 00:38:52;;;;;;;2.67;1.65;;;10.60;99.90;;;-144.05;58.26;56967.78;5011891;28;20026;-80
2024/03/02 00:41:26;;;;;;;2.83;1.50;;;9.00;99.90;;;-144.05;58.83;56967.78;5012742;28;20044;-81
2024/03/02 00:44:04;;;;;;;3.90;1.60;;;8.30;99.90;;;-144.05;59.11;56982.66;5015717;28;20056;-78
2024/03/02 00:46:37;;;;;;;3.78;1.58;;;7.10;99.90;;;-144.05;58.77;56942.28;5014651;28;20356;-79
2024/03/02 00:49:10;;;;;;;1.83;1.40;;;10.70;99.90;;;-144.05;58.08;56986.91;5014707;28;20034;-78
2024/03/02 00:51:38;;;;;;;2.10;1.40;;;8.30;99.90;;;-144.05;58.86;56980.53;5014050;28;20060;-80
2024/03/02 00:54:09;;;;;;;3.33;1.85;;;10.80;99.90;;;-144.05;58.33;56952.91;5018143;28;20040;-78
2024/03/02 00:56:35;;;;;;;3.28;1.77;;;7.80;99.90;;;-144.05;57.87;56948.66;5030009;28;20028;-80
2024/03/02 00:59:02;;;;;;;9.15;2.92;;;;;;;-144.05;57.71;56948.66;5037409;28;20041;-79
2024/03/02 01:01:27;;;;;;;2.35;1.40;;;7.40;99.90;;;-144.05;57.62;56963.53;5016888;28;20105;-81
2024/03/02 01:03:55;;;;;;;3.33;1.52;;;7.70;99.90;;;-144.05;58.19;56963.53;5020589;28;20133;-78
2024/03/02 01:06:22;;;;;;;5.10;1.73;;;7.40;99.90;;;-144.05;57.53;56957.16;5024241;28;20129;-80
2024/03/02 01:08:51;;;;;;;3.70;1.40;;;;;;;-144.05;57.65;56963.53;5013327;28;20104;-80
2024/03/02 01:11:21;;;;;;;2.58;1.38;;;7.60;99.90;;;-144.05;57.72;56948.66;5013238;28;20030;-80
2024/03/02 01:13:48;;;;;;;4.63;1.92;;;6.50;99.90;;;-144.05;57.73;56965.66;5014523;28;20439;-80
2024/03/02 01:16:15;;;;;;;2.30;1.50;;;7.20;99.90;;;-144.05;57.34;56986.91;5014331;28;20034;-80
2024/03/02 01:18:42;;;;;;;2.72;1.45;;;7.20;99.90;;;-144.05;57.51;56989.00;5014623;28;20022;-78
2024/03/02 01:21:08;;;;;;;4.78;2.10;;;7.50;99.90;;;-144.05;57.91;56946.53;5014223;28;20034;-81
2024/03/02 01:23:34;;;;;;;2.75;1.80;;;6.70;99.90;;;-144.05;57.68;56976.28;5014253;28;20083;-78
2024/03/02 01:26:00;;;;;;;4.18;1.85;;;;;;;-144.05;58.00;56946.53;5014999;28;20150;-78
2024/03/02 01:28:26;;;;;;;3.38;1.85;;;9.30;99.90;;;-144.05;57.46;56944.41;5017090;28;20030;-80
2024/03/02 01:30:52;;;;;;;4.22;2.10;;;6.60;99.90;;;-144.05;57.85;56969.91;5014194;28;20030;-78
2024/03/02 01:33:21;;;;;;;2.88;1.80;;;8.10;99.90;;;-144.05;57.34;56929.53;5012606;28;20079;-80
2024/03/02 01:35:47;;;;;;;3.28;1.90;;;;;;;-144.05;56.97;56967.78;5014145;28;20360;-79
2024/03/02 01:38:13;;;;;;;5.18;2.33;;;;;;;-144.05;57.02;56955.03;5012513;28;20033;-80
2024/03/02 01:40:39;;;;;;;4.13;1.92;;;6.30;99.90;;;-144.05;56.76;56935.91;5013358;28;20447;-78
2024/03/02 01:43:07;;;;;;;2.47;1.75;;;;;;;-144.05;56.79;56944.41;5014888;28;20056;-78
2024/03/02 01:45:35;;;;;;;3.40;2.00;;;7.40;99.90;;;-144.05;56.71;56959.28;5011694;28;20049;-79
2024/03/02 01:48:02;;;;;;;3.05;1.85;;;;;;;-144.05;57.23;56963.53;5013130;28;20096;-80
2024/03/02 01:50:32;;;;;;;2.95;1.80;;;6.60;99.90;;;-144.05;56.85;56974.16;5014346;28;20029;-79
2024/03/02 01:53:00;;;;;;;4.55;2.10;;;8.30;99.90;;;-144.05;56.96;56959.28;5014934;28;20034;-79
2024/03/02 01:55:29;;;;;;;4.05;2.03;;;6.90;99.90;;;-144.05;57.15;56938.03;5015299;28;20507;-79
2024/03/02 01:57:55;;;;;;;2.90;1.63;;;7.00;99.90;;;-144.05;56.67;56965.66;5014643;28;20105;-80
2024/03/02 02:00:21;;;;;;;4.82;1.88;;;6.70;99.90;;;-144.05;57.08;56978.41;5014604;28;20030;-79
2024/03/02 02:02:52;;;;;;;5.45;1.70;;;7.00;99.90;;;-144.05;56.69;56950.78;5019031;28;20021;-81
2024/03/02 02:05:18;;;;;;;2.63;1.40;;;9.20;99.90;;;-144.05;56.30;56976.28;5014180;28;20049;-80
2024/03/02 02:07:44;;;;;;;3.72;1.40;;;7.60;99.90;;;-144.05;56.80;56957.16;5014238;28;20601;-81
2024/03/02 02:10:11;;;;;;;4.38;1.85;;;8.30;99.90;;;-144.05;56.27;56955.03;5012454;28;20135;-80
2024/03/02 02:12:37;;;;;;;4.82;2.10;;;7.60;99.90;;;-144.05;56.54;56938.03;5012796;28;20034;-80
2024/03/02 02:15:26;;;;;;;3.05;1.50;;;6.90;99.90;;;-144.05;56.54;56950.78;5012331;28;20552;-80
2024/03/02 02:17:53;;;;;;;3.70;1.40;;;;;;;-144.05;56.79;56974.16;5013528;28;20120;-80
2024/03/02 02:20:19;;;;;;;1.67;1.15;;;;;;;-144.05;56.59;56972.03;5011566;28;20084;-80
2024/03/02 02:23:01;;;;;;;4.03;1.50;;;7.00;99.90;;;-144.05;56.76;56959.28;5012207;28;20037;-80
2024/03/02 02:25:29;;;;;;;2.28;1.30;;;6.80;99.90;;;-144.05;57.31;56991.13;5013342;28;20376;-80
2024/03/02 02:27:56;;;;;;;4.30;1.60;;;6.90;99.90;;;-144.05;57.27;56963.53;5012691;28;20033;-79
2024/03/02 02:30:31;;;;;;;2.10;1.30;;;6.80;99.90;;;-144.05;56.93;56957.16;5028425;28;20048;-81
2024/03/02 02:32:58;;;;;;;3.15;1.55;;;8.20;99.90;;;-144.05;57.52;56946.53;5011554;28;20026;-80
2024/03/02 02:35:24;;;;;;;2.75;1.65;;;7.10;99.90;;;-144.05;56.91;56955.03;5012946;28;20021;-80
2024/03/02 02:37:54;;;;;;;2.25;1.60;;;8.10;99.90;;;-144.05;56.95;56972.03;5011178;28;20108;-79
2024/03/02 02:40:20;;;;;;;3.67;1.25;;;;;;;-144.05;56.78;56963.53;5011336;28;20029;-79
2024/03/02 02:42:47;;;;;;;2.75;1.02;;;8.20;99.90;;;-144.05;56.79;56950.78;5010772;28;20030;-80
2024/03/02 02:45:14;;;;;;;2.13;1.20;;;8.30;99.90;;;-144.05;56.42;56986.91;5012532;28;20033;-80
2024/03/02 02:47:41;;;;;;;3.05;1.10;;;7.90;99.90;;;-144.05;56.28;56972.03;5011003;28;20433;-78
2024/03/02 02:50:08;;;;;;;3.80;1.17;;;8.30;99.90;;;-144.05;56.25;56967.78;5010700;28;20033;-78
2024/03/02 02:52:39;;;;;;;2.05;0.98;;;7.50;99.90;;;-144.05;56.07;56965.66;5011085;28;20446;-79
2024/03/02 02:55:10;;;;;;;2.72;1.35;;;;;;;-144.05;56.17;56982.66;5012469;28;20025;-78
2024/03/02 02:57:39;;;;;;;6.43;1.48;;;;;;;-144.05;55.69;56946.53;5012209;28;20049;-80
2024/03/02 03:00:15;;;;;;;1.83;0.95;;;8.40;99.90;;;-144.05;55.51;56972.03;5012016;28;20430;-80
2024/03/02 03:02:42;;;;;;;3.53;0.93;;;;;;;-144.05;55.76;56952.91;5012270;28;20026;-79
2024/03/02 03:05:14;;;;;;;2.33;1.15;;;8.30;99.90;;;-144.05;55.40;56952.91;5012713;28;20116;-79
2024/03/02 03:07:41;;;;;;;2.17;1.30;;;9.10;99.90;;;-144.05;55.94;56978.41;5010438;28;20530;-78
2024/03/02 03:10:08;;;;;;;3.70;1.30;;;7.00;99.90;;;-144.05;55.57;56978.41;5010833;28;20034;-78
2024/03/02 03:12:37;;;;;;;1.40;0.90;;;6.90;99.90;;;-144.05;55.89;56963.53;5005128;28;20018;-79
2024/03/02 03:15:04;;;;;;;2.28;1.17;;;8.90;99.90;;;-144.05;55.89;56948.66;5011708;28;20022;-80
2024/03/02 03:17:31;;;;;;;4.15;1.15;;;;;;;-144.05;55.75;56991.13;5011760;28;20483;-80
2024/03/02 03:19:56;;;;;;;2.50;1.65;;;6.80;99.90;;;-144.05;55.37;56948.66;5012164;28;20032;-80
2024/03/02 03:22:23;;;;;;;2.17;1.17;;;;;;;-144.05;55.34;56961.41;5010450;28;20026;-79
2024/03/02 03:24:49;;;;;;;3.85;1.20;;;7.40;99.90;;;-144.05;55.71;56997.50;5022937;28;20076;-79
2024/03/02 03:27:15;;;;;;;2.28;1.30;;;;;;;-144.05;55.39;56976.28;5029873;28;20029;-80
2024/03/02 03:29:41;;;;;;;2.83;1.40;;;;;;;-144.05;55.80;56927.41;5030542;28;20112;-81
2024/03/02 03:32:08;;;;;;;3.85;1.70;;;6.60;99.90;;;-144.05;56.08;56946.53;5027882;28;20030;-80
2024/03/02 03:34:35;;;;;;;1.88;1.35;;;8.20;99.90;;;-144.05;55.91;56984.78;5027667;28;20113;-82
2024/03/02 03:37:01;;;;;;;2.72;1.30;;;7.00;99.90;;;-144.05;56.18;56976.28;5012355;28;20064;-78
2024/03/02 03:39:28;;;;;;;2.47;1.23;;;8.10;99.90;;;-144.05;56.40;56972.03;5011582;28;20026;-80
2024/03/02 03:41:54;;;;;;;3.58;1.50;;;;;;;-144.05;56.81;56955.03;5011641;28;20087;-78
2024/03/02 03:44:20;;;;;;;1.63;1.00;;;;;;;-144.05;56.40;56963.53;5011785;28;20061;-79
2024/03/02 03:46:46;;;;;;;1.73;1.00;;;8.30;99.90;;;-144.05;56.27;56950.78;5021176;28;20050;-81
2024/03/02 03:49:12;;;;;;;2.58;1.33;;;;;;;-144.05;55.92;56976.28;5031192;28;20052;-81
2024/03/02 03:51:38;;;;;;;4.75;1.13;;;7.00;99.90;;;-144.05;55.92;56980.53;5012550;28;20113;-78
2024/03/02 03:54:04;;;;;;;2.53;1.05;;;;;;;-144.05;55.84;56991.13;5011643;28;20060;-79
2024/03/02 03:56:30;;;;;;;2.17;0.93;;;6.80;99.90;;;-144.05;55.83;56946.53;5011245;28;20749;-79
2024/03/02 03:58:56;;;;;;;2.20;1.15;;;;;;;-144.05;55.53;56976.28;5009808;28;20038;-81
2024/03/02 04:01:23;;;;;;;1.75;0.93;;;;;;;-144.05;55.49;56959.28;5009545;28;20029;-81
2024/03/02 04:03:49;;;;;;;2.47;0.90;;;8.90;99.90;;;-144.05;55.31;56948.66;5010033;28;20480;-79
2024/03/02 04:06:17;;;;;;;1.60;0.90;;;6.70;99.90;;;-144.05;54.80;56940.16;5010822;28;20507;-79
2024/03/02 04:08:43;;;;;;;1.83;1.05;;;;;;;-144.05;55.11;56982.66;5009759;28;20487;-80
2024/03/02 04:11:09;;;;;;;3.95;0.98;;;;;;;-144.05;54.41;56965.66;5011518;28;20112;-78
2024/03/02 04:13:35;;;;;;;2.42;1.00;;;7.60;99.90;;;-144.05;54.17;56976.28;5029741;28;20025;-79
2024/03/02 04:16:03;;;;;;;1.27;1.00;;;;;;;-144.05;54.31;56974.16;5015087;28;20551;-79
2024/03/02 04:18:30;;;;;;;2.15;0.98;;;;;;;-144.05;53.79;56952.91;5014887;28;20073;-79
2024/03/02 04:20:58;;;;;;;1.80;1.20;;;6.80;99.90;;;-144.05;53.85;56944.41;5013542;28;20128;-79
2024/03/02 04:23:23;;;;;;;4.28;1.60;;;7.10;99.90;;;-144.05;54.30;56952.91;5015236;28;20521;-79
2024/03/02 04:25:50;;;;;;;3.42;1.58;;;;;;;-144.05;54.20;56965.66;5015369;28;20037;-81
2024/03/02 04:28:16;;;;;;;2.58;1.15;;;7.30;99.90;;;-144.05;54.10;56967.78;5014946;28;20060;-80
2024/03/02 04:30:42;;;;;;;4.47;1.00;;;10.90;99.90;;;-144.05;54.17;56946.53;5013742;28;20021;-81
2024/03/02 04:33:09;;;;;;;3.80;1.23;;;;;;;-144.05;54.17;56931.66;5014777;28;20022;-79
2024/03/02 04:35:36;;;;;;;2.65;1.02;;;7.50;99.90;;;-144.05;53.74;56967.78;5015012;28;20433;-78
2024/03/02 04:38:03;;;;;;;2.10;0.90;;;7.30;99.90;;;-144.05;53.76;56963.53;5013310;28;20037;-78
2024/03/02 04:40:29;;;;;;;3.25;1.40;;;9.60;99.90;;;-144.05;53.78;56927.41;5030210;28;20026;-80
2024/03/02 04:42:54;;;;;;;3.10;1.10;;;7.20;99.90;;;-144.05;54.27;56959.28;5014434;28;20439;-79
2024/03/02 04:45:21;;;;;;;2.92;1.42;;;;;;;-144.05;54.54;56955.03;5014689;28;20125;-79
2024/03/02 04:47:47;;;;;;;3.90;1.17;;;;;;;-144.05;54.63;56976.28;5012910;28;20179;-79
2024/03/02 04:50:13;;;;;;;2.13;1.10;;;8.70;99.90;;;-144.05;54.45;56940.16;5016191;28;20038;-78
2024/03/02 04:52:39;;;;;;;3.58;1.30;;;7.60;99.90;;;-144.05;54.17;56993.25;5025086;28;20034;-80
2024/03/02 04:55:35;;;;;;;1.92;1.20;;;8.40;99.90;;;-144.05;54.94;56965.66;5016354;28;20034;-79
2024/03/02 04:58:01;;;;;;;1.38;0.93;;;;;;;-144.05;54.92;56950.78;5031820;28;20041;-80
2024/03/02 05:00:27;;;;;;;2.78;1.55;;;9.10;99.90;;;-144.05;54.78;56944.41;5014471;28;20038;-80
2024/03/02 05:02:53;;;;;;;2.38;1.55;;;;;;;-144.05;54.59;56982.66;5016045;28;20053;-80
2024/03/02 05:05:19;;;;;;;2.53;1.20;;;10.40;99.90;;;-144.05;54.59;56946.53;5015136;28;20021;-81
2024/03/02 05:07:45;;;;;;;2.30;1.38;;;;;;;-144.05;54.90;56974.16;5015498;28;20092;-81
2024/03/02 05:10:11;;;;;;;2.17;1.35;;;;;;;-144.05;55.36;56959.28;5015549;28;20498;-79
2024/03/02 05:12:56;;;;;;;2.92;1.77;;;9.30;99.90;;;-144.05;55.44;56963.53;5014728;28;20453;-80
2024/03/02 05:15:22;;;;;;;2.30;1.30;;;7.30;99.90;;;-144.05;55.37;56955.03;5011517;28;20402;-79
2024/03/02 05:17:48;;;;;;;2.47;1.20;;;7.40;99.90;;;-144.05;55.19;56976.28;5014504;28;20018;-79
2024/03/02 05:20:14;;;;;;;3.05;1.80;;;;;;;-144.05;56.01;56948.66;5013070;28;20549;-81
2024/03/02 05:22:40;;;;;;;2.95;1.30;;;7.80;99.90;;;-144.05;55.90;56946.53;5014525;28;20045;-78
2024/03/02 05:25:07;;;;;;;2.63;1.40;;;6.50;99.90;;;-144.05;55.86;56940.16;5013998;28;20026;-78
2024/03/02 05:27:33;;;;;;;2.15;1.63;;;6.80;99.90;;;-144.05;56.54;56955.03;5029321;28;20041;-79
2024/03/02 05:30:00;;;;;;;5.00;1.40;;;7.10;99.90;;;-144.05;56.22;56961.41;5013622;28;20038;-79
2024/03/02 05:32:25;;;;;;;3.60;2.05;;;7.10;99.90;;;-144.05;57.05;56969.91;5013696;28;20061;-80
2024/03/02 05:34:52;;;;;;;3.28;1.58;;;;;;;-144.05;57.22;56972.03;5012468;28;20430;-81
2024/03/02 05:37:18;;;;;;;2.60;1.52;;;;;;;-144.05;57.26;56982.66;5010387;28;20022;-78
2024/03/02 05:39:44;;;;;;;3.45;1.40;;;7.20;99.90;;;-144.05;56.21;56969.91;5013496;28;20064;-79
2024/03/02 05:42:10;;;;;;;4.53;1.80;;;;;;;-144.05;56.78;56963.53;5014087;28;20030;-80
2024/03/02 05:44:36;;;;;;;4.60;1.85;;;8.60;99.90;;;-144.05;56.61;56950.78;5013298;28;20026;-80
2024/03/02 05:47:03;;;;;;;4.55;1.73;;;7.50;99.90;;;-144.05;56.68;56963.53;5013632;28;20061;-79
2024/03/02 05:49:30;;;;;;;4.72;1.95;;;;;;;-144.05;56.30;56976.28;5014060;28;20082;-80
2024/03/02 05:51:56;;;;;;;3.92;1.85;;;;;;;-144.05;57.42;56969.91;5012769;28;20372;-79
2024/03/02 05:54:22;;;;;;;3.92;1.73;;;7.60;99.90;;;-144.05;57.27;56944.41;5013081;28;20506;-79
2024/03/02 05:56:48;;;;;;;4.65;1.90;;;6.60;99.90;;;-144.05;57.57;56969.91;5015747;28;20026;-79
2024/03/02 05:59:16;;;;;;;4.28;2.25;;;;;;;-144.05;57.72;56978.41;5015624;28;20096;-77
2024/03/02 06:01:47;;;;;;;3.78;2.03;;;8.60;99.90;;;-144.05;57.12;56955.03;5016814;28;20030;-78
2024/03/02 06:04:14;;;;;;;4.05;1.95;;;8.70;99.90;;;-144.05;56.96;56946.53;5017401;28;20533;-76
2024/03/02 06:06:40;;;;;;;4.22;2.28;;;7.80;99.90;;;-144.05;57.71;56969.91;5014957;28;20034;-79
2024/03/02 06:09:08;;;;;;;4.38;2.00;;;;;;;-144.05;57.54;56961.41;5014859;28;20169;-80
2024/03/02 06:11:39;;;;;;;2.47;1.58;;;7.70;99.90;;;-144.05;57.84;56972.03;5015324;28;20517;-80
2024/03/02 06:14:09;;;;;;;8.23;2.58;;;6.50;99.90;;;-144.05;57.76;56942.28;5014837;28;20045;-82
2024/03/02 06:16:35;;;;;;;3.97;1.85;;;8.60;99.90;;;-144.05;58.12;56974.16;5014850;28;20030;-81
2024/03/02 06:19:02;;;;;;;4.15;1.83;;;6.70;99.90;;;-144.05;57.47;56938.03;5013717;28;20030;-80
2024/03/02 06:21:28;;;;;;;6.13;2.53;;;6.90;99.90;;;-144.05;57.71;56976.28;5015461;28;20029;-81
2024/03/02 06:23:54;;;;;;;4.90;1.83;;;7.20;99.90;;;-144.05;57.97;56959.28;5014736;28;20507;-80
2024/03/02 06:26:20;;;;;;;3.15;1.95;;;4.20;99.90;;;-144.05;57.41;56946.53;5030281;28;20403;-80
2024/03/02 06:28:46;;;;;;;4.82;1.90;;;7.10;99.90;;;-144.05;56.79;56986.91;5013847;28;20025;-81
2024/03/02 06:31:13;;;;;;;2.90;1.77;;;;;;;-144.05;57.22;56995.38;5013504;28;20061;-80
2024/03/02 06:33:40;;;;;;;4.20;1.77;;;7.20;99.90;;;-144.05;57.34;56946.53;5014611;28;20053;-80
2024/03/02 06:36:09;;;;;;;4.80;2.20;;;6.80;99.90;;;-144.05;56.96;56982.66;5018368;28;20045;-81
2024/03/02 06:38:35;;;;;;;3.25;2.17;;;7.00;99.90;;;-144.05;57.19;56986.91;5028556;28;20032;-80
2024/03/02 06:41:01;;;;;;;4.28;2.30;;;7.20;99.90;;;-144.05;57.36;56948.66;5032556;28;20100;-81
2024/03/02 06:43:27;;;;;;;4.63;1.88;;;7.50;99.90;;;-144.05;57.33;56967.78;5014812;28;20064;-80
2024/03/02 06:45:52;;;;;;;5.30;2.40;;;6.80;99.90;;;-144.05;57.67;56978.41;5016317;28;20033;-77
2024/03/02 06:48:23;;;;;;;5.72;1.95;;;7.60;99.90;;;-144.05;57.71;56959.28;5012847;28;20033;-77
2024/03/02 06:50:50;;;;;;;3.47;2.13;;;6.80;99.90;;;-144.05;57.38;56980.53;5014342;28;20014;-79
2024/03/02 06:53:17;;;;;;;5.60;2.22;;;6.80;99.90;;;-144.05;56.94;56959.28;5013521;28;20517;-80
2024/03/02 06:55:46;;;;;;;6.82;2.30;;;7.90;99.90;;;-144.05;56.79;56946.53;5029634;28;20025;-81
2024/03/02 06:58:15;;;;;;;4.47;2.45;;;7.90;99.90;;;-144.05;56.47;56965.66;5014577;28;20487;-79
2024/03/02 07:00:43;;;;;;;3.63;2.20;;;8.00;99.90;;;-144.05;56.11;56948.66;5012955;28;20551;-79
2024/03/02 07:03:10;;;;;;;4.07;2.05;;;8.30;99.90;;;-144.05;55.71;56978.41;5014284;28;20026;-79
2024/03/02 07:05:36;;;;;;;6.00;2.33;;;7.90;99.90;;;-144.05;55.00;56938.03;5014847;28;20120;-81
2024/03/02 07:08:03;;;;;;;2.60;1.98;;;10.80;99.90;;;-144.05;54.37;56933.78;5014218;28;20418;-80
2024/03/02 07:10:29;;;;;;;3.65;1.98;;;;;;;-144.05;53.82;56931.66;5014379;28;20026;-79
2024/03/02 07:12:55;;;;;;;14.65;2.40;;;7.60;99.90;;;-144.05;52.84;56967.78;5013366;28;20026;-79
2024/03/02 07:17:53;;;;;;;6.35;2.22;;;;;;;-144.05;53.01;56938.03;5013355;28;20457;-77
2024/03/02 07:20:19;;;;;;;3.50;2.08;;;7.10;99.90;;;-144.05;52.19;56942.28;5016140;28;20108;-80
2024/03/02 07:22:45;;;;;;;3.97;1.95;;;7.70;99.90;;;-144.05;51.90;56957.16;5016324;28;20026;-78
2024/03/02 07:25:12;;;;;;;4.95;2.08;;;11.00;99.90;;;-144.05;51.56;56938.03;5014598;28;20455;-80
2024/03/02 07:27:39;;;;;;;6.60;2.55;;;8.00;99.90;;;-144.05;51.44;56940.16;5014484;28;20034;-79
2024/03/02 07:30:07;;;;;;;5.15;2.58;;;14.20;99.90;;;-144.05;51.83;56935.91;5014475;28;20510;-76
2024/03/02 07:32:33;;;;;;;5.40;2.45;;;;;;;-144.05;51.04;56972.03;5014603;28;20062;-80
2024/03/02 07:35:01;;;;;;;3.72;1.73;;;14.20;99.90;;;-144.05;50.97;56944.41;5013998;28;20030;-81
2024/03/02 07:37:27;;;;;;;2.85;1.70;;;7.50;99.90;;;-144.05;50.91;56935.91;5013958;28;20116;-77
2024/03/02 07:39:53;;;;;;;3.75;2.00;;;7.30;99.90;;;-144.05;50.12;56933.78;5014561;28;20022;-78
2024/03/02 07:42:19;;;;;;;4.72;1.83;;;11.10;99.90;;;-144.05;49.61;56959.28;5025120;28;20573;-80
2024/03/02 07:44:45;;;;;;;3.50;2.40;;;7.50;99.90;;;-144.05;49.96;56952.91;5014569;28;20022;-81
2024/03/02 07:47:11;;;;;;;3.88;1.95;;;11.10;99.90;;;-144.05;49.35;56942.28;5013166;28;20056;-80
2024/03/02 07:49:38;;;;;;;4.47;2.15;;;7.90;99.90;;;-144.05;50.29;56942.28;5029332;28;20665;-80
2024/03/02 07:52:04;;;;;;;5.03;2.05;;;;;;;-144.05;49.80;56948.66;5012407;28;20038;-79
2024/03/02 07:54:30;;;;;;;2.95;1.73;;;;;;;-144.05;49.29;56948.66;5029519;28;20022;-80
2024/03/02 07:56:58;;;;;;;5.32;2.40;;;14.20;99.90;;;-144.05;48.46;56935.91;5014606;28;20116;-78
2024/03/02 07:59:23;;;;;;;6.35;2.10;;;8.00;99.90;;;-144.05;49.30;56938.03;5014835;28;20041;-80
2024/03/02 08:01:55;;;;;;;3.25;1.98;;;8.80;99.90;;;-144.05;48.46;56944.41;5015012;28;20026;-80
2024/03/02 08:04:21;;;;;;;3.42;2.05;;;8.30;99.90;;;-144.05;48.17;56935.91;5010709;28;20025;-81
2024/03/02 08:06:47;;;;;;;3.47;1.70;;;8.80;99.90;;;-144.05;48.37;56942.28;5013266;28;20032;-79
2024/03/02 08:09:14;;;;;;;2.90;2.00;;;8.60;99.90;;;-144.05;48.54;56955.03;5013796;28;20115;-80
2024/03/02 08:11:40;;;;;;;3.63;1.95;;;8.40;99.90;;;-144.05;47.62;56933.78;5015065;28;20487;-81
2024/03/02 08:14:06;;;;;;;4.53;1.92;;;8.70;99.90;;;-144.05;47.75;56925.28;5017036;28;20037;-81
2024/03/02 08:16:32;;;;;;;2.90;1.63;;;8.50;99.90;;;-144.05;47.57;56914.69;5018299;28;20026;-80
2024/03/02 08:18:59;;;;;;;6.88;2.05;;;;;;;-144.05;46.98;56923.19;5027468;28;20079;-77
2024/03/02 08:21:25;;;;;;;4.45;1.73;;;7.60;99.90;;;-144.05;47.04;56935.91;5033267;28;20024;-79
2024/03/02 08:23:52;;;;;;;3.30;1.73;;;14.70;99.90;;;-144.05;46.93;56921.06;5031091;28;20062;-79
2024/03/02 08:26:18;;;;;;;5.07;2.08;;;9.00;99.90;;;-144.05;46.22;56918.94;5026423;28;20036;-78
2024/03/02 08:28:43;;;;;;;3.60;1.55;;;14.50;99.90;;;-144.05;46.19;56927.41;5023511;28;20046;-80
2024/03/02 08:31:10;;;;;;;4.00;1.52;;;11.50;99.90;;;-144.05;45.41;56929.53;5027650;28;20153;-77
2024/03/02 08:33:36;;;;;;;3.80;1.60;;;14.60;99.90;;;-144.05;44.83;56912.56;5024242;28;20026;-78
2024/03/02 08:36:03;;;;;;;2.78;1.40;;;14.90;99.90;;;-144.05;44.63;56933.78;5017469;28;20050;-77
2024/03/02 08:38:29;;;;;;;5.93;2.17;;;14.70;99.90;;;-144.05;44.86;56942.28;5013487;28;20030;-80
2024/03/02 08:40:55;;;;;;;3.13;1.73;;;;;;;-144.05;44.61;56940.16;5011879;28;20491;-78
2024/03/02 08:43:22;;;;;;;3.05;1.65;;;9.30;99.90;;;-144.05;44.10;56916.81;5013329;28;20092;-80
2024/03/02 08:45:49;;;;;;;4.97;1.55;;;10.10;99.90;;;-144.05;44.65;56921.06;5013472;28;20026;-77
2024/03/02 08:48:15;;;;;;;2.92;1.65;;;10.20;99.90;;;-144.05;44.74;56925.28;5014035;28;20206;-78
2024/03/02 08:50:40;;;;;;;2.72;1.60;;;10.50;99.90;;;-144.05;44.19;56942.28;5016916;28;20109;-81
2024/03/02 08:53:07;;;;;;;2.25;1.33;;;;;;;-144.05;43.83;56895.56;5019218;28;20054;-79
2024/03/02 08:55:33;;;;;;;2.08;1.35;;;10.20;99.90;;;-144.05;43.69;56912.56;5018572;28;20296;-78
2024/03/02 08:57:59;;;;;;;3.88;1.75;;;9.60;99.90;;;-144.05;44.20;56918.94;5016116;28;20034;-83
2024/03/02 09:00:25;;;;;;;2.83;1.70;;;;;;;-144.05;43.86;56933.78;5019646;28;20036;-79
2024/03/02 09:02:52;;;;;;;4.60;1.52;;;9.90;99.90;;;-144.05;44.41;56933.78;5023541;28;20112;-79
2024/03/02 09:05:17;;;;;;;2.33;1.38;;;14.90;99.90;;;-144.05;44.46;56931.66;5018354;28;20513;-81
2024/03/02 09:07:43;;;;;;;3.13;1.50;;;10.70;99.90;;;-144.05;43.79;56929.53;5021498;28;20034;-80
2024/03/02 09:10:10;;;;;;;4.00;1.42;;;10.30;99.90;;;-144.05;43.27;56906.19;5019407;28;20567;-80
2024/03/02 09:12:38;;;;;;;3.65;1.67;;;10.30;99.90;;;-144.05;43.47;56904.06;5018541;28;20025;-79
2024/03/02 09:15:05;;;;;;;3.22;1.45;;;11.00;99.90;;;-144.05;43.14;56942.28;5020325;28;20518;-78
2024/03/02 09:17:32;;;;;;;2.67;1.33;;;;;;;-144.05;42.61;56942.28;5019469;28;20090;-81
2024/03/02 09:19:58;;;;;;;3.42;1.25;;;;;;;-144.05;42.03;56921.06;5018746;28;20498;-79
2024/03/02 09:22:24;;;;;;;2.90;1.20;;;14.80;99.90;;;-144.05;42.63;56912.56;5018534;28;20044;-82
2024/03/02 09:24:50;;;;;;;3.58;1.30;;;10.20;99.90;;;-144.05;43.47;56929.53;5040706;28;20038;-79
2024/03/02 09:27:15;;;;;;;2.78;1.30;;;14.80;99.90;;;-144.05;43.33;56906.19;5027580;28;20038;-77
2024/03/02 09:29:41;;;;;;;2.60;1.38;;;14.80;99.90;;;-144.05;43.78;56923.19;5020802;28;20033;-80
2024/03/02 09:32:12;;;;;;;2.22;1.25;;;14.90;99.90;;;-144.05;43.42;56912.56;5019540;28;20099;-81
2024/03/02 09:34:38;;;;;;;1.92;1.02;;;;;;;-144.05;43.48;56927.41;5034116;28;20025;-77
2024/03/02 09:37:05;;;;;;;4.22;1.40;;;;;;;-144.05;42.77;56908.31;5019991;28;20034;-78
2024/03/02 09:39:31;;;;;;;1.55;0.80;;;14.90;99.90;;;-144.05;43.38;56938.03;5018363;28;20414;-80
2024/03/02 09:41:59;;;;;;;1.88;1.08;;;10.50;99.90;;;-144.05;43.03;56912.56;5017652;28;20045;-79
2024/03/02 09:44:26;;;;;;;2.53;0.88;;;15.20;99.90;;;-144.05;42.56;56940.16;5018389;28;20029;-81
2024/03/02 09:46:53;;;;;;;1.10;0.73;;;13.00;99.90;;;-144.05;42.75;56933.78;5016578;28;20057;-77
2024/03/02 09:49:19;;;;;;;1.73;1.02;;;15.20;99.90;;;-144.05;42.91;56910.44;5014192;28;20044;-80
2024/03/02 09:51:49;;;;;;;1.80;0.88;;;14.90;99.90;;;-144.05;42.77;56918.94;5020467;28;20049;-79
2024/03/02 09:54:17;;;;;;;2.60;1.10;;;15.00;99.90;;;-144.05;42.96;56921.06;5019703;28;20029;-80
2024/03/02 09:56:45;;;;;;;2.08;1.00;;;15.00;99.90;;;-144.05;42.95;56938.03;5018764;28;20026;-80
2024/03/02 09:59:13;;;;;;;3.03;0.90;;;;;;;-144.05;42.25;56925.28;5018381;28;20025;-79
2024/03/02 10:01:39;;;;;;;1.15;0.90;;;10.90;99.90;;;-144.05;42.03;56906.19;5015680;28;20040;-79
2024/03/02 10:04:05;;;;;;;2.25;0.73;;;13.60;99.90;;;-144.05;42.01;56929.53;5016406;28;20029;-78
2024/03/02 10:06:32;;;;;;;3.70;0.90;;;;;;;-144.05;42.57;56916.81;5017103;28;20029;-80
2024/03/02 10:08:58;;;;;;;1.40;0.80;;;15.10;99.90;;;-144.05;41.52;56923.19;5017666;28;20061;-79
2024/03/02 10:11:37;;;;;;;1.52;0.65;;;15.00;99.90;;;-144.05;43.13;56929.53;5017120;28;20117;-80
2024/03/02 10:14:12;;;;;;;1.13;0.65;;;15.10;99.90;;;-144.05;42.38;56916.81;5018260;28;20052;-77
2024/03/02 10:16:43;;;;;;;1.27;1.00;;;15.20;99.90;;;-144.05;42.48;56908.31;5019174;28;20033;-78
2024/03/02 10:19:24;;;;;;;0.85;0.65;;;11.00;99.90;;;-144.05;41.98;56933.78;5021750;28;20116;-78
2024/03/02 10:21:53;;;;;;;2.78;0.73;;;15.10;99.90;;;-144.05;42.92;56916.81;5015837;28;20032;-79
2024/03/02 10:24:22;;;;;;;2.53;0.70;;;14.90;99.90;;;-144.05;42.77;56925.28;5029035;28;20433;-80
2024/03/02 10:26:50;;;;;;;3.63;0.90;;;15.10;99.90;;;-144.05;41.29;56916.81;5031425;28;20033;-81
2024/03/02 10:29:16;;;;;;;3.13;0.70;;;15.40;99.90;;;-144.05;40.58;56921.06;5027537;28;20030;-81